KNG50 NZOH-NZOH

Flight info

Callsign KNG50
Flight time 0h 31m
Altitude 5000
Route OH
Aircraft B350/L-SBGRW/S

Departure

Time 2026-04-26 09:02
Airport RNZAF Base Ohakea (NZOH)

Arrival

Time 2026-04-26 09:34
Airport RNZAF Base Ohakea (NZOH)
Time Latitude Longitude Altitude Speed Heading
2026-04-26 08:53 -40.20034 175.37782 169 ft 0 kts 106°
2026-04-26 08:56 -40.20034 175.37785 169 ft 5 kts 106°
2026-04-26 08:57 -40.20088 175.37790 169 ft 12 kts 132°
2026-04-26 08:57 -40.20116 175.37898 169 ft 14 kts 104°
2026-04-26 08:57 -40.20142 175.38024 169 ft 15 kts 139°
2026-04-26 08:57 -40.20238 175.38091 169 ft 17 kts 154°
2026-04-26 08:58 -40.20296 175.38216 169 ft 17 kts 110°
2026-04-26 08:58 -40.20336 175.38367 169 ft 18 kts 109°
2026-04-26 08:58 -40.20379 175.38523 169 ft 19 kts 107°
2026-04-26 08:58 -40.20423 175.38684 169 ft 19 kts 109°
2026-04-26 08:59 -40.20466 175.38849 169 ft 19 kts 108°
2026-04-26 08:59 -40.20510 175.39016 169 ft 19 kts 107°
2026-04-26 08:59 -40.20554 175.39184 169 ft 20 kts 108°
2026-04-26 08:59 -40.20600 175.39354 169 ft 20 kts 110°
2026-04-26 09:00 -40.20647 175.39524 169 ft 20 kts 108°
2026-04-26 09:00 -40.20693 175.39695 169 ft 20 kts 107°
2026-04-26 09:00 -40.20737 175.39869 169 ft 20 kts 107°
2026-04-26 09:00 -40.20783 175.40011 169 ft 13 kts 174°
2026-04-26 09:01 -40.20822 175.40000 169 ft 0 kts 197°
2026-04-26 09:01 -40.20833 175.39996 169 ft 11 kts 197°
2026-04-26 09:01 -40.20917 175.39962 169 ft 15 kts 211°
2026-04-26 09:02 -40.20906 175.39870 169 ft 29 kts 286°
2026-04-26 09:02 -40.20653 175.38921 187 ft 123 kts 289°
2026-04-26 09:02 -40.20477 175.38185 433 ft 132 kts 288°
2026-04-26 09:02 -40.20193 175.37027 929 ft 136 kts 289°
2026-04-26 09:03 -40.20128 175.35752 1245 ft 154 kts 255°
2026-04-26 09:03 -40.20892 175.34722 1236 ft 173 kts 203°
2026-04-26 09:03 -40.22090 175.34643 1242 ft 172 kts 163°
2026-04-26 09:03 -40.23072 175.35512 1171 ft 172 kts 127°
2026-04-26 09:04 -40.23614 175.36883 1204 ft 169 kts 116°
2026-04-26 09:04 -40.24130 175.38266 1202 ft 169 kts 113°
2026-04-26 09:04 -40.24599 175.39682 1166 ft 169 kts 107°
2026-04-26 09:04 -40.24603 175.41097 1101 ft 145 kts 68°
2026-04-26 09:05 -40.23943 175.41990 1104 ft 135 kts 31°
2026-04-26 09:05 -40.23064 175.42441 983 ft 136 kts 13°
2026-04-26 09:05 -40.22126 175.42442 883 ft 136 kts 345°
2026-04-26 09:05 -40.21450 175.41726 575 ft 128 kts 298°
2026-04-26 09:06 -40.21134 175.40701 389 ft 114 kts 292°
2026-04-26 09:06 -40.20880 175.39765 193 ft 108 kts 291°
2026-04-26 09:06 -40.20649 175.38909 169 ft 106 kts 289°
2026-04-26 09:06 -40.20375 175.37860 362 ft 130 kts 291°
2026-04-26 09:07 -40.20060 175.36741 725 ft 130 kts 290°
2026-04-26 09:07 -40.19917 175.35587 1061 ft 135 kts 257°
2026-04-26 09:07 -40.20460 175.34555 1236 ft 148 kts 215°
2026-04-26 09:07 -40.21468 175.34274 1207 ft 153 kts 170°
2026-04-26 09:08 -40.22402 175.34864 1191 ft 151 kts 131°
2026-04-26 09:08 -40.22889 175.36058 1207 ft 149 kts 111°
2026-04-26 09:08 -40.23247 175.37333 1201 ft 149 kts 109°
2026-04-26 09:08 -40.23593 175.38618 1200 ft 149 kts 109°
2026-04-26 09:09 -40.23936 175.39900 1200 ft 149 kts 109°
2026-04-26 09:09 -40.24262 175.41146 1182 ft 151 kts 104°
2026-04-26 09:09 -40.24265 175.42501 1185 ft 148 kts 73°
2026-04-26 09:09 -40.23715 175.43611 1220 ft 146 kts 41°
2026-04-26 09:10 -40.22887 175.43938 1047 ft 114 kts 346°
2026-04-26 09:10 -40.22199 175.43350 807 ft 125 kts 317°
2026-04-26 09:10 -40.21660 175.42536 638 ft 123 kts 300°
2026-04-26 09:10 -40.21363 175.41589 481 ft 100 kts 288°
2026-04-26 09:11 -40.21126 175.40703 342 ft 104 kts 288°
2026-04-26 09:11 -40.20878 175.39759 195 ft 107 kts 290°
2026-04-26 09:11 -40.20653 175.38911 176 ft 115 kts 288°
2026-04-26 09:11 -40.20375 175.37843 427 ft 129 kts 289°
2026-04-26 09:12 -40.20054 175.36703 705 ft 137 kts 290°
2026-04-26 09:12 -40.20035 175.35464 926 ft 145 kts 243°
2026-04-26 09:12 -40.20808 175.34655 1147 ft 152 kts 193°
2026-04-26 09:12 -40.21854 175.34905 1204 ft 163 kts 146°
2026-04-26 09:13 -40.22516 175.36064 1210 ft 160 kts 114°
2026-04-26 09:13 -40.22921 175.37416 1202 ft 160 kts 109°
2026-04-26 09:13 -40.23291 175.38783 1199 ft 159 kts 109°
2026-04-26 09:13 -40.23657 175.40151 1199 ft 159 kts 109°
2026-04-26 09:14 -40.24021 175.41517 1200 ft 159 kts 109°
2026-04-26 09:14 -40.24329 175.42897 1178 ft 160 kts 90°
2026-04-26 09:14 -40.23973 175.44256 1129 ft 162 kts 57°
2026-04-26 09:14 -40.23114 175.45080 1072 ft 146 kts 15°
2026-04-26 09:15 -40.22227 175.44848 913 ft 123 kts 318°
2026-04-26 09:15 -40.21931 175.43911 733 ft 112 kts 284°
2026-04-26 09:15 -40.21726 175.42984 579 ft 108 kts 286°
2026-04-26 09:15 -40.21458 175.41958 521 ft 126 kts 288°
2026-04-26 09:16 -40.21184 175.40914 354 ft 122 kts 289°
2026-04-26 09:16 -40.20912 175.39888 192 ft 116 kts 290°
2026-04-26 09:16 -40.20668 175.38971 169 ft 109 kts 289°
2026-04-26 09:16 -40.20383 175.37881 276 ft 135 kts 287°
2026-04-26 09:17 -40.20113 175.36740 697 ft 124 kts 286°
2026-04-26 09:17 -40.20099 175.35632 939 ft 130 kts 243°
2026-04-26 09:17 -40.20828 175.34941 1056 ft 140 kts 188°
2026-04-26 09:17 -40.21750 175.35325 1127 ft 147 kts 136°
2026-04-26 09:18 -40.22269 175.36493 1197 ft 153 kts 112°
2026-04-26 09:18 -40.22646 175.37818 1203 ft 155 kts 109°
2026-04-26 09:18 -40.23004 175.39148 1199 ft 154 kts 109°
2026-04-26 09:18 -40.23358 175.40470 1199 ft 154 kts 109°
2026-04-26 09:19 -40.23710 175.41788 1200 ft 153 kts 109°
2026-04-26 09:19 -40.23813 175.43135 1167 ft 147 kts 76°
2026-04-26 09:19 -40.23349 175.44248 1076 ft 135 kts 46°
2026-04-26 09:19 -40.22600 175.44547 1032 ft 104 kts 340°
2026-04-26 09:20 -40.22031 175.43832 870 ft 123 kts 303°
2026-04-26 09:20 -40.21683 175.42798 772 ft 122 kts 290°
2026-04-26 09:20 -40.21420 175.41800 554 ft 116 kts 290°
2026-04-26 09:20 -40.21164 175.40840 370 ft 106 kts 289°
2026-04-26 09:21 -40.20935 175.39977 194 ft 94 kts 289°
2026-04-26 09:21 -40.20739 175.39238 169 ft 101 kts 289°
2026-04-26 09:21 -40.20474 175.38207 413 ft 124 kts 287°
2026-04-26 09:21 -40.20195 175.37139 948 ft 120 kts 289°
2026-04-26 09:22 -40.19805 175.36125 1391 ft 138 kts 311°
2026-04-26 09:22 -40.18923 175.35599 1773 ft 153 kts 358°
2026-04-26 09:22 -40.17818 175.35719 2265 ft 157 kts 10°
2026-04-26 09:22 -40.16760 175.35950 2918 ft 152 kts 11°
2026-04-26 09:23 -40.15735 175.36203 3545 ft 149 kts 11°
2026-04-26 09:23 -40.14717 175.36492 4121 ft 150 kts 11°
2026-04-26 09:23 -40.13691 175.36826 4660 ft 154 kts 10°
2026-04-26 09:23 -40.12581 175.37223 4879 ft 179 kts 12°
2026-04-26 09:24 -40.11324 175.37777 4971 ft 205 kts 25°
2026-04-26 09:24 -40.10293 175.39187 5003 ft 229 kts 60°
2026-04-26 09:24 -40.09973 175.41201 4997 ft 233 kts 92°
2026-04-26 09:24 -40.10324 175.43261 5003 ft 233 kts 108°
2026-04-26 09:25 -40.10877 175.45252 5006 ft 233 kts 110°
2026-04-26 09:25 -40.11455 175.47235 5001 ft 234 kts 110°
2026-04-26 09:25 -40.12000 175.49236 4999 ft 234 kts 106°
2026-04-26 09:25 -40.12418 175.51283 5003 ft 233 kts 103°
2026-04-26 09:26 -40.12809 175.53369 4998 ft 233 kts 104°
2026-04-26 09:26 -40.13200 175.55422 4994 ft 233 kts 108°
2026-04-26 09:26 -40.13979 175.57236 5013 ft 232 kts 126°
2026-04-26 09:26 -40.14981 175.58889 5008 ft 232 kts 131°
2026-04-26 09:27 -40.16036 175.60488 5001 ft 232 kts 131°
2026-04-26 09:27 -40.17097 175.62082 5000 ft 233 kts 132°
2026-04-26 09:27 -40.18164 175.63670 4988 ft 233 kts 131°
2026-04-26 09:27 -40.19254 175.65304 4723 ft 235 kts 131°
2026-04-26 09:28 -40.20288 175.66868 4510 ft 221 kts 131°
2026-04-26 09:28 -40.21455 175.68046 4316 ft 205 kts 161°
2026-04-26 09:28 -40.22777 175.68134 4181 ft 183 kts 200°
2026-04-26 09:28 -40.23756 175.67214 4069 ft 177 kts 233°
2026-04-26 09:29 -40.24478 175.65858 3902 ft 186 kts 240°
2026-04-26 09:29 -40.25166 175.64379 3615 ft 195 kts 241°
2026-04-26 09:29 -40.25870 175.62823 3319 ft 202 kts 242°
2026-04-26 09:29 -40.26577 175.61226 3143 ft 201 kts 244°
2026-04-26 09:30 -40.26746 175.59482 3039 ft 192 kts 282°
2026-04-26 09:30 -40.26274 175.57911 3105 ft 181 kts 297°
2026-04-26 09:30 -40.25666 175.56502 3086 ft 178 kts 302°
2026-04-26 09:30 -40.25013 175.55167 3047 ft 175 kts 297°
2026-04-26 09:31 -40.24548 175.53647 2841 ft 184 kts 290°
2026-04-26 09:31 -40.24132 175.52060 2681 ft 181 kts 288°
2026-04-26 09:31 -40.23757 175.50587 2221 ft 167 kts 289°
2026-04-26 09:31 -40.23392 175.49187 1822 ft 159 kts 290°
2026-04-26 09:32 -40.23039 175.47889 1645 ft 148 kts 289°
2026-04-26 09:32 -40.22721 175.46644 1454 ft 141 kts 290°
2026-04-26 09:32 -40.22397 175.45452 1260 ft 138 kts 288°
2026-04-26 09:32 -40.22087 175.44243 978 ft 141 kts 288°
2026-04-26 09:33 -40.21777 175.43104 812 ft 116 kts 290°
2026-04-26 09:33 -40.21519 175.42174 587 ft 96 kts 290°
2026-04-26 09:33 -40.21293 175.41328 400 ft 109 kts 289°
2026-04-26 09:33 -40.21029 175.40339 283 ft 121 kts 289°
2026-04-26 09:34 -40.20784 175.39416 169 ft 88 kts 290°
2026-04-26 09:34 -40.20624 175.38811 169 ft 51 kts 289°
2026-04-26 09:34 -40.20526 175.38440 169 ft 41 kts 290°
2026-04-26 09:34 -40.20426 175.38215 169 ft 20 kts 326°
2026-04-26 09:35 -40.20300 175.38129 169 ft 21 kts 334°
2026-04-26 09:35 -40.20168 175.38047 169 ft 21 kts 329°
2026-04-26 09:35 -40.20120 175.37917 169 ft 17 kts 287°
2026-04-26 09:35 -40.20080 175.37836 169 ft 9 kts 19°
2026-04-26 09:36 -40.20041 175.37821 169 ft 0 kts 271°